CHIUDI BANNER

Seguici su twitter Seguici su facebook
LIVE Streaming HD
Get Adobe Flash player
Dati meteo stazione (refresh automatico ogni minuto)
Latina VENTO: VELOCITÀ   PIOGGIA: QTA GIORNO TEMPERATURA: ATTUALE
SPOT: Latina lido
(Hotel Tirreno) Posizione su Googlemap: Latitudine 41.41 Longitudine 12.84
RAFFICA MASSIMA: QTA MENSILE: MASSIMA:
VELOCITÀ MEDIA: QTA ANNUALE: MINIMA:
DIREZIONE: UMIDITÀ: WIND CHILL:
TIPO: DEW POINT:
BEAUFORT: PRESSIONE:
I nostri partner
Latina nelle ultime ore
Applica filtri in visualizzazione Intervallo delle letture nelle ultime

Ora Direzione Vento Velocita' Vento Media Vento Raffica Max. Temperatura Wind Chill Pioggia Pressione
11:02:16207 °(SSW)2.1 Kts3.8 Kts12.5 Kts22.2 °C20.2 °C0 mm1003 Hpa
10:58:01192 °(SSW)4.7 Kts3.8 Kts12.5 Kts22.4 °C20.2 °C0 mm1002.9 Hpa
10:51:52187 °(S)4.7 Kts3 Kts12.5 Kts22.4 °C20.6 °C0 mm1003 Hpa
10:47:32200 °(SSW)3.8 Kts2.1 Kts12.5 Kts22.4 °C21 °C0 mm1002.9 Hpa
10:41:52200 °(SSW)2.1 Kts2.1 Kts12.5 Kts22.3 °C20.9 °C0 mm1002.9 Hpa
10:37:53200 °(SSW)2.1 Kts2.1 Kts12.5 Kts22.2 °C20.7 °C0 mm1002.9 Hpa
10:32:21178 °(S)2.1 Kts2.1 Kts12.5 Kts22.1 °C20.7 °C0 mm1003 Hpa
10:28:06186 °(S)2.1 Kts3 Kts12.5 Kts22.1 °C20.2 °C0 mm1003 Hpa
10:22:47191 °(S)3 Kts2.1 Kts12.5 Kts22.1 °C20.6 °C0 mm1003 Hpa
10:17:33180 °(S)3 Kts3 Kts12.5 Kts21.7 °C20 °C0 mm1003.1 Hpa
10:12:15179 °(S)3 Kts3.8 Kts12.5 Kts21.7 °C19.4 °C0 mm1002.9 Hpa
10:08:03188 °(S)4.7 Kts3.8 Kts12.5 Kts21.7 °C19.4 °C0 mm1002.9 Hpa
10:02:45183 °(S)3 Kts3 Kts12.5 Kts21.6 °C19.7 °C0 mm1002.7 Hpa
09:57:26186 °(S)2.1 Kts3 Kts12.5 Kts21.2 °C19.4 °C0 mm1002.7 Hpa
09:52:11171 °(S)2.1 Kts2.1 Kts12.5 Kts21.2 °C19.6 °C0 mm1002.5 Hpa
09:48:01174 °(S)3 Kts2.1 Kts12.5 Kts21.1 °C19.6 °C0 mm1002.6 Hpa
09:42:44147 °(SSE)1.2 Kts1.2 Kts12.5 Kts21.1 °C20 °C0 mm1002.5 Hpa
09:37:36140 °(SE)2.1 Kts1.2 Kts12.5 Kts20.7 °C19.7 °C0 mm1002.5 Hpa
09:32:22174 °(S)0.3 Kts2.1 Kts12.5 Kts20.7 °C19.1 °C0 mm1002.4 Hpa
09:27:21168 °(SSE)3 Kts2.1 Kts12.5 Kts20.8 °C19.2 °C0 mm1002.4 Hpa
09:22:01148 °(SSE)0.3 Kts0 Kts12.5 Kts21.1 °C21.1 °C0 mm1002.2 Hpa
09:17:49155 °(SSE)0.3 Kts0 Kts12.5 Kts21.3 °C21.3 °C0 mm1002.2 Hpa
09:12:32203 °(SSW)0 Kts0 Kts12.5 Kts21.3 °C21.3 °C0 mm1002.2 Hpa
09:07:15209 °(SSW)1.2 Kts0 Kts12.5 Kts21.1 °C21.1 °C0 mm1002.2 Hpa